Terminal Aerodrome Forecast
Issued by NWS

Home | Current Version | Previous Version | Text Only | Print | Product List | Glossary On
Versions: 1 2 3 4 5 6 7 8 9 10 11 12 13
000
FTUS45 KREV 310527
TAFMMH
TAF
KMMH 310527Z 3106/0106 VRB04KT P6SM SCT100 BKN180
     FM311900 10009KT P6SM VCSH SCT100 BKN140
     FM312200 14009G16KT P6SM VCTS SCT080CB BKN120
     FM010200 26008KT P6SM FEW080 SCT120 BKN150=

USA.gov is the U.S. government's official web portal to all federal, state and local government web resources and services.